Annandale, New York
Current Conditions -  °F | °C
As of 10:53 PM on Wednesday 28 Jan 2015 (Local Time) from KPOU Reporting Station
Clear Clear  
Wind Chill: -14°   Ceiling: Unl
Heat Index: -14°   Visibility: 10mi
Dew Point: -18°   Wind: 0mph
Humidity: 73%   Direction: NA
Pressure: 30.29"   Gusts: NA
Location:  42.0124°N, 73.8998°W
Report Text: KPOU 290353Z AUTO 00000KT 10SM CLR M14/M18 A3029 RMK AO2 SLP256 T11441183 TSNO
Loading
Personal Weather Stations






























Interactive Weather Map New forecast layout! Learn more

10-Day Weather Forecast

Advertisements
Track Severe Weather on mobile